Time;durP1;ratioP1;P1;durP2;ratioP2;P2;SDS_P1;SDS_P2;PMS_P1;PMS_P2;Temp;Humidity;BMP_temperature;BMP_pressure;BME280_temperature;BME280_humidity;BME280_pressure;Samples;Min_cycle;Max_cycle;Signal;HPM_P1;HPM_P2
2022/06/07 00:01:27;;;;;;;21.05;10.05;;;;;;;;;;4868692;29;20223;-65
2022/06/07 00:03:55;;;;;;;28.33;10.68;;;;;;;;;;4823002;29;20743;-65
2022/06/07 00:06:20;;;;;;;24.10;10.00;;;;;;;;;;4869105;29;20040;-64
2022/06/07 00:08:46;;;;;;;18.83;10.32;;;;;;;;;;4866545;29;20816;-64
2022/06/07 00:11:11;;;;;;;27.73;10.23;;;;;;;;;;4867300;29;20048;-65
2022/06/07 00:13:37;;;;;;;25.27;10.02;;;;;;;;;;4867113;29;20040;-65
2022/06/07 00:16:02;;;;;;;26.88;10.32;;;;;;;;;;4850687;29;20043;-65
2022/06/07 00:18:30;;;;;;;26.52;10.88;;;;;;;;;;4868166;29;21154;-66
2022/06/07 00:20:56;;;;;;;24.45;11.07;;;;;;;;;;4868489;29;20811;-66
2022/06/07 00:23:23;;;;;;;25.48;11.20;;;;;;;;;;4851172;29;20040;-66
2022/06/07 00:25:50;;;;;;;24.75;11.82;;;;;;;;;;4866674;29;20044;-67
2022/06/07 00:28:17;;;;;;;28.95;11.38;;;;;;;;;;4867924;29;20062;-67
2022/06/07 00:30:42;;;;;;;24.27;12.20;;;;;;;;;;4849907;29;20268;-66
2022/06/07 00:33:08;;;;;;;23.10;11.45;;;;;;;;;;4868918;29;20041;-66
2022/06/07 00:35:33;;;;;;;26.55;10.98;;;;;;;;;;4864602;29;20055;-66
2022/06/07 00:37:58;;;;;;;25.48;11.73;;;;;;;;;;4867335;29;20103;-65
2022/06/07 00:40:24;;;;;;;24.75;12.43;;;;;;;;;;4846613;29;20045;-65
2022/06/07 00:42:52;;;;;;;24.27;12.63;;;;;;;;;;4868081;29;20055;-66
2022/06/07 00:45:19;;;;;;;26.95;13.75;;;;;;;;;;4850080;29;21002;-66
2022/06/07 00:47:45;;;;;;;25.48;11.90;;;;;;;;;;4867739;29;22380;-66
2022/06/07 00:50:16;;;;;;;20.50;11.98;;;;;;;;;;4849365;29;20039;-64
2022/06/07 00:52:41;;;;;;;26.02;12.88;;;;;;;;;;4866658;29;20036;-65
2022/06/07 00:55:09;;;;;;;26.05;13.82;;;;;;;;;;4867259;29;20075;-65
2022/06/07 00:57:35;;;;;;;26.92;14.23;;;;;;;;;;4850267;29;20578;-65
2022/06/07 01:00:00;;;;;;;26.50;14.13;;;;;;;;;;4866705;29;20036;-66
2022/06/07 01:02:28;;;;;;;28.10;14.10;;;;;;;;;;4866454;29;20813;-65
2022/06/07 01:04:54;;;;;;;30.60;14.73;;;;;;;;;;4849431;29;20054;-65
2022/06/07 01:12:47;;;;;;;27.45;13.13;;;;;;;;;;4863675;29;20036;-65
2022/06/07 01:15:15;;;;;;;29.05;13.05;;;;;;;;;;4866714;29;20769;-65
2022/06/07 01:17:41;;;;;;;21.30;12.40;;;;;;;;;;4864651;29;20036;-65
2022/06/07 01:20:07;;;;;;;27.90;13.35;;;;;;;;;;4848955;29;21067;-66
2022/06/07 01:22:33;;;;;;;29.17;13.13;;;;;;;;;;4866774;29;20116;-68
2022/06/07 01:24:58;;;;;;;28.13;13.18;;;;;;;;;;4866344;29;20035;-66
2022/06/07 01:27:23;;;;;;;28.83;14.90;;;;;;;;;;4865671;29;20109;-66
2022/06/07 01:29:51;;;;;;;23.23;13.15;;;;;;;;;;4865498;29;20039;-67
2022/06/07 01:32:18;;;;;;;29.15;13.77;;;;;;;;;;4845937;29;20147;-67
2022/06/07 01:34:44;;;;;;;29.05;13.93;;;;;;;;;;4850206;29;20128;-66
2022/06/07 01:37:11;;;;;;;28.95;13.60;;;;;;;;;;4856011;29;20040;-67
2022/06/07 01:42:21;;;;;;;28.92;14.38;;;;;;;;;;4851974;29;20134;-66
2022/06/07 01:44:50;;;;;;;23.90;13.55;;;;;;;;;;4849883;29;20770;-67
2022/06/07 01:47:17;;;;;;;23.63;13.50;;;;;;;;;;4851321;29;20046;-66
2022/06/07 01:49:42;;;;;;;30.70;14.45;;;;;;;;;;4864737;29;20036;-67
2022/06/07 01:52:08;;;;;;;25.73;14.82;;;;;;;;;;4867067;29;20079;-68
2022/06/07 01:54:33;;;;;;;34.08;15.10;;;;;;;;;;4865424;29;20047;-67
2022/06/07 01:56:59;;;;;;;25.42;14.10;;;;;;;;;;4866452;29;20136;-66
2022/06/07 01:59:25;;;;;;;28.75;14.73;;;;;;;;;;4864547;29;20040;-66
2022/06/07 02:01:51;;;;;;;31.23;14.32;;;;;;;;;;4865870;29;20897;-66
2022/06/07 02:04:16;;;;;;;29.40;14.15;;;;;;;;;;4865441;29;20047;-67
2022/06/07 02:06:41;;;;;;;27.20;13.73;;;;;;;;;;4866438;29;20475;-67
2022/06/07 02:09:08;;;;;;;33.90;15.02;;;;;;;;;;4863818;29;20172;-66
2022/06/07 02:11:36;;;;;;;26.88;14.98;;;;;;;;;;4866768;29;20044;-67
2022/06/07 02:14:02;;;;;;;30.52;15.00;;;;;;;;;;4868528;29;20083;-69
2022/06/07 02:16:27;;;;;;;27.83;14.85;;;;;;;;;;4867130;29;20092;-68
2022/06/07 02:18:55;;;;;;;35.92;15.95;;;;;;;;;;4868646;29;20052;-65
2022/06/07 02:21:21;;;;;;;30.02;14.38;;;;;;;;;;4864794;29;20147;-66
2022/06/07 02:23:46;;;;;;;23.92;14.55;;;;;;;;;;4864551;29;20044;-66
2022/06/07 02:26:18;;;;;;;28.00;14.80;;;;;;;;;;4866596;29;20036;-66
2022/06/07 02:28:49;;;;;;;33.55;14.10;;;;;;;;;;4848315;29;22420;-66
2022/06/07 02:31:15;;;;;;;30.73;14.10;;;;;;;;;;4847469;29;20044;-67
2022/06/07 02:33:44;;;;;;;27.30;14.13;;;;;;;;;;4866855;29;21210;-67
2022/06/07 02:36:10;;;;;;;27.55;13.98;;;;;;;;;;4843056;29;20051;-67
2022/06/07 02:38:36;;;;;;;28.60;13.77;;;;;;;;;;4865934;29;20036;-67
2022/06/07 02:41:03;;;;;;;33.00;13.40;;;;;;;;;;4864374;29;20959;-67
2022/06/07 02:43:28;;;;;;;28.50;13.68;;;;;;;;;;4866326;29;20040;-65
2022/06/07 02:45:54;;;;;;;24.55;13.00;;;;;;;;;;4864234;29;20037;-66
2022/06/07 02:48:19;;;;;;;28.02;13.93;;;;;;;;;;4865449;29;20039;-66
2022/06/07 02:50:45;;;;;;;26.33;14.38;;;;;;;;;;4847197;29;20075;-68
2022/06/07 02:53:10;;;;;;;31.23;13.70;;;;;;;;;;4848632;29;20067;-66
2022/06/07 02:55:36;;;;;;;32.75;13.45;;;;;;;;;;4864294;29;20040;-66
2022/06/07 02:58:01;;;;;;;27.55;13.52;;;;;;;;;;4846337;29;20640;-65
2022/06/07 03:00:31;;;;;;;26.70;13.38;;;;;;;;;;4864501;29;20753;-65
2022/06/07 03:02:56;;;;;;;26.63;13.85;;;;;;;;;;4848649;29;20036;-66
2022/06/07 03:05:21;;;;;;;24.85;13.00;;;;;;;;;;4865576;29;20048;-67
2022/06/07 03:07:48;;;;;;;26.95;13.13;;;;;;;;;;4865098;29;20077;-66
2022/06/07 03:10:13;;;;;;;29.80;14.10;;;;;;;;;;4863160;29;20079;-65
2022/06/07 03:12:39;;;;;;;29.30;14.43;;;;;;;;;;4863127;29;20857;-65
2022/06/07 03:15:05;;;;;;;25.90;13.10;;;;;;;;;;4864073;29;21012;-65
2022/06/07 03:17:31;;;;;;;29.88;14.00;;;;;;;;;;4864274;29;20060;-65
2022/06/07 03:19:56;;;;;;;25.80;14.13;;;;;;;;;;4845027;29;20647;-67
2022/06/07 03:22:23;;;;;;;28.85;14.13;;;;;;;;;;4867760;29;20036;-65
2022/06/07 03:24:48;;;;;;;30.88;14.40;;;;;;;;;;4868845;29;20323;-66
2022/06/07 03:27:13;;;;;;;25.92;13.35;;;;;;;;;;4866868;29;20071;-66
2022/06/07 03:29:38;;;;;;;29.00;14.50;;;;;;;;;;4850465;29;20189;-66
2022/06/07 03:32:05;;;;;;;31.40;13.38;;;;;;;;;;4868654;29;20636;-68
2022/06/07 03:34:33;;;;;;;29.42;13.07;;;;;;;;;;4867374;29;20040;-64
2022/06/07 03:36:59;;;;;;;29.10;13.95;;;;;;;;;;4868201;29;20037;-67
2022/06/07 03:39:24;;;;;;;36.80;13.98;;;;;;;;;;4867113;29;20045;-67
2022/06/07 03:41:49;;;;;;;33.40;14.88;;;;;;;;;;4830956;29;20154;-65
2022/06/07 03:44:15;;;;;;;32.28;14.27;;;;;;;;;;4817677;29;20492;-66
2022/06/07 03:46:41;;;;;;;27.95;13.82;;;;;;;;;;4866682;29;20047;-66
2022/06/07 03:49:07;;;;;;;26.25;12.98;;;;;;;;;;4829217;29;20135;-65
2022/06/07 03:51:32;;;;;;;28.88;13.38;;;;;;;;;;4866300;29;20047;-65
2022/06/07 03:53:58;;;;;;;37.13;14.13;;;;;;;;;;4864865;29;20047;-65
2022/06/07 03:56:23;;;;;;;28.15;13.43;;;;;;;;;;4863763;29;20084;-65
2022/06/07 03:58:49;;;;;;;27.25;13.80;;;;;;;;;;4866310;29;20044;-65
2022/06/07 04:01:18;;;;;;;36.20;15.88;;;;;;;;;;4867851;29;20120;-65
2022/06/07 04:03:48;;;;;;;31.25;14.50;;;;;;;;;;4851208;29;20044;-66
2022/06/07 04:06:24;;;;;;;28.45;14.75;;;;;;;;;;4860151;29;20036;-67
2022/06/07 04:08:49;;;;;;;25.77;15.00;;;;;;;;;;4861455;29;20115;-66
2022/06/07 04:11:16;;;;;;;35.75;15.48;;;;;;;;;;4854191;29;20056;-65
2022/06/07 04:13:42;;;;;;;29.10;14.82;;;;;;;;;;4846455;29;20882;-65
2022/06/07 04:16:08;;;;;;;28.75;15.38;;;;;;;;;;4863684;29;20219;-66
2022/06/07 04:18:33;;;;;;;32.35;15.18;;;;;;;;;;4860635;29;20958;-65
2022/06/07 04:20:59;;;;;;;30.33;15.55;;;;;;;;;;4848665;29;20147;-66
2022/06/07 04:23:25;;;;;;;32.80;16.05;;;;;;;;;;4866798;29;20040;-67
2022/06/07 04:25:50;;;;;;;30.25;15.32;;;;;;;;;;4864816;29;20044;-67
2022/06/07 04:28:18;;;;;;;29.00;15.52;;;;;;;;;;4865529;29;20036;-65
2022/06/07 04:30:44;;;;;;;35.05;15.82;;;;;;;;;;4864400;29;20075;-65
2022/06/07 04:33:10;;;;;;;33.58;15.98;;;;;;;;;;4848579;29;20028;-64
2022/06/07 04:35:35;;;;;;;25.10;14.32;;;;;;;;;;4829718;29;20819;-64
2022/06/07 04:38:00;;;;;;;32.97;14.93;;;;;;;;;;4863935;29;20036;-69
2022/06/07 04:40:25;;;;;;;32.67;15.60;;;;;;;;;;4867094;29;20048;-68
2022/06/07 04:42:51;;;;;;;34.13;14.90;;;;;;;;;;4867767;29;20060;-69
2022/06/07 04:45:16;;;;;;;27.60;14.20;;;;;;;;;;4868204;29;20067;-69
2022/06/07 04:47:42;;;;;;;23.77;12.95;;;;;;;;;;4848477;29;20545;-70
2022/06/07 04:50:09;;;;;;;35.70;14.30;;;;;;;;;;4868886;29;20044;-72
2022/06/07 04:52:34;;;;;;;26.63;14.00;;;;;;;;;;4868518;29;20067;-69
2022/06/07 04:55:00;;;;;;;27.15;14.45;;;;;;;;;;4867834;29;21001;-70
2022/06/07 04:57:25;;;;;;;32.10;14.20;;;;;;;;;;4868405;29;20032;-71
2022/06/07 04:59:51;;;;;;;31.65;13.90;;;;;;;;;;4864070;29;20040;-68
2022/06/07 05:02:16;;;;;;;32.58;13.45;;;;;;;;;;4867640;29;20865;-70
2022/06/07 05:04:42;;;;;;;26.38;12.63;;;;;;;;;;4866993;29;20067;-72
2022/06/07 05:07:07;;;;;;;32.17;12.63;;;;;;;;;;4867222;29;20040;-70
2022/06/07 05:09:32;;;;;;;33.47;13.93;;;;;;;;;;4848793;29;20036;-69
2022/06/07 05:11:58;;;;;;;28.63;13.02;;;;;;;;;;4862947;29;20048;-69
2022/06/07 05:14:23;;;;;;;22.90;12.77;;;;;;;;;;4865553;29;20123;-71
2022/06/07 05:16:49;;;;;;;30.85;13.60;;;;;;;;;;4866303;29;20104;-68
2022/06/07 05:19:18;;;;;;;26.38;13.55;;;;;;;;;;4847512;29;20967;-68
2022/06/07 05:21:44;;;;;;;35.58;13.80;;;;;;;;;;4850158;29;20127;-65
2022/06/07 05:24:10;;;;;;;27.70;13.48;;;;;;;;;;4863718;29;20115;-69
2022/06/07 05:26:38;;;;;;;30.67;14.48;;;;;;;;;;4866123;29;20040;-70
2022/06/07 05:29:13;;;;;;;31.58;14.13;;;;;;;;;;4866803;29;20151;-71
2022/06/07 05:31:42;;;;;;;32.47;14.55;;;;;;;;;;4850544;29;20181;-69
2022/06/07 05:34:08;;;;;;;28.58;14.88;;;;;;;;;;4862137;29;20036;-70
2022/06/07 05:36:33;;;;;;;40.45;15.00;;;;;;;;;;4864592;29;20155;-71
2022/06/07 05:38:58;;;;;;;34.08;13.27;;;;;;;;;;4858759;29;20058;-70
2022/06/07 05:41:29;;;;;;;32.97;14.05;;;;;;;;;;4867446;29;20044;-71
2022/06/07 05:43:54;;;;;;;35.58;14.40;;;;;;;;;;4868079;29;20048;-69
2022/06/07 05:46:19;;;;;;;36.42;14.27;;;;;;;;;;4866844;29;20028;-70
2022/06/07 05:48:45;;;;;;;31.08;14.70;;;;;;;;;;4865224;29;20036;-70
2022/06/07 05:51:10;;;;;;;32.50;14.80;;;;;;;;;;4866402;29;20043;-70
2022/06/07 05:53:36;;;;;;;30.73;14.20;;;;;;;;;;4868365;29;20044;-71
2022/06/07 05:56:05;;;;;;;28.92;14.95;;;;;;;;;;4867294;29;20136;-69
2022/06/07 05:58:32;;;;;;;29.08;15.18;;;;;;;;;;4868110;29;20066;-67
2022/06/07 06:01:00;;;;;;;34.38;14.55;;;;;;;;;;4865125;29;20058;-70
2022/06/07 06:03:28;;;;;;;32.58;14.50;;;;;;;;;;4846133;29;20056;-68
2022/06/07 06:05:56;;;;;;;34.70;14.95;;;;;;;;;;4863000;29;20152;-68
2022/06/07 06:11:09;;;;;;;35.75;15.00;;;;;;;;;;4864088;29;20147;-69
2022/06/07 06:13:35;;;;;;;30.27;15.68;;;;;;;;;;4866426;29;20035;-69
2022/06/07 06:16:05;;;;;;;34.55;15.27;;;;;;;;;;4865551;29;20131;-70
2022/06/07 06:18:30;;;;;;;29.92;16.00;;;;;;;;;;4867504;29;20056;-69
2022/06/07 06:20:56;;;;;;;32.13;15.40;;;;;;;;;;4865014;29;20173;-70
2022/06/07 06:23:21;;;;;;;34.10;15.52;;;;;;;;;;4864787;29;21011;-67
2022/06/07 06:25:46;;;;;;;31.67;15.35;;;;;;;;;;4866894;29;20047;-69
2022/06/07 06:28:11;;;;;;;34.80;14.90;;;;;;;;;;4866035;29;20043;-69
2022/06/07 06:30:37;;;;;;;38.95;14.57;;;;;;;;;;4866436;29;20827;-70
2022/06/07 06:33:02;;;;;;;32.08;12.38;;;;;;;;;;4865243;29;20032;-69
2022/06/07 06:35:27;;;;;;;36.70;12.70;;;;;;;;;;4853929;29;20178;-65
2022/06/07 06:37:52;;;;;;;37.88;13.90;;;;;;;;;;4862356;29;20358;-65
2022/06/07 06:40:18;;;;;;;27.83;14.50;;;;;;;;;;4860315;29;20032;-67
2022/06/07 06:42:44;;;;;;;37.22;15.45;;;;;;;;;;4858257;29;20272;-66
2022/06/07 06:45:10;;;;;;;34.75;13.75;;;;;;;;;;4858074;29;20552;-67
2022/06/07 06:47:36;;;;;;;31.70;13.00;;;;;;;;;;4846321;29;20036;-64
2022/06/07 06:50:01;;;;;;;21.23;10.50;;;;;;;;;;4861411;29;20044;-65
2022/06/07 06:52:26;;;;;;;26.40;12.18;;;;;;;;;;4863407;29;20068;-65
2022/06/07 06:54:51;;;;;;;29.23;11.90;;;;;;;;;;4846254;29;20639;-65
2022/06/07 06:57:17;;;;;;;26.23;10.90;;;;;;;;;;4849273;29;20431;-66
2022/06/07 06:59:42;;;;;;;24.77;9.95;;;;;;;;;;4867145;29;20036;-64
2022/06/07 07:02:09;;;;;;;26.73;9.43;;;;;;;;;;4867181;29;20184;-65
2022/06/07 07:04:34;;;;;;;25.00;9.05;;;;;;;;;;4861430;29;20305;-66
2022/06/07 07:06:59;;;;;;;21.75;8.02;;;;;;;;;;4830850;29;22092;-66
2022/06/07 07:09:26;;;;;;;18.70;7.90;;;;;;;;;;4850348;29;20063;-65
2022/06/07 07:11:53;;;;;;;25.58;8.75;;;;;;;;;;4867663;29;25843;-65
2022/06/07 07:14:18;;;;;;;26.60;9.35;;;;;;;;;;4862770;29;20627;-65
2022/06/07 07:16:52;;;;;;;28.42;9.27;;;;;;;;;;4865958;29;20048;-65
2022/06/07 07:19:20;;;;;;;19.63;7.72;;;;;;;;;;4866162;29;20040;-65
2022/06/07 07:21:46;;;;;;;23.13;7.80;;;;;;;;;;4846601;29;20419;-65
2022/06/07 07:24:20;;;;;;;21.73;7.78;;;;;;;;;;4865940;29;20036;-66
2022/06/07 07:26:46;;;;;;;29.90;8.48;;;;;;;;;;4850392;29;20035;-66
2022/06/07 07:29:12;;;;;;;26.63;8.73;;;;;;;;;;4864193;29;20040;-65
2022/06/07 07:31:40;;;;;;;21.23;7.30;;;;;;;;;;4867453;29;20043;-64
2022/06/07 07:34:09;;;;;;;21.87;6.93;;;;;;;;;;4865792;29;20120;-67
2022/06/07 07:36:36;;;;;;;20.02;6.63;;;;;;;;;;4866163;29;20942;-65
2022/06/07 07:39:03;;;;;;;20.50;7.13;;;;;;;;;;4865507;29;20036;-66
2022/06/07 07:41:30;;;;;;;22.92;7.38;;;;;;;;;;4867186;29;20055;-66
2022/06/07 07:43:56;;;;;;;19.13;6.85;;;;;;;;;;4866204;29;20035;-65
2022/06/07 07:46:22;;;;;;;20.58;6.47;;;;;;;;;;4866648;29;20056;-66
2022/06/07 07:48:48;;;;;;;17.27;6.32;;;;;;;;;;4869161;29;20147;-67
2022/06/07 07:51:19;;;;;;;24.67;7.40;;;;;;;;;;4856268;29;20078;-69
2022/06/07 07:53:44;;;;;;;19.60;6.28;;;;;;;;;;4862415;29;20231;-67
2022/06/07 07:56:10;;;;;;;14.93;5.65;;;;;;;;;;4844484;29;20195;-65
2022/06/07 07:58:36;;;;;;;19.02;6.20;;;;;;;;;;4867456;29;20086;-66
2022/06/07 08:01:07;;;;;;;18.33;5.47;;;;;;;;;;4866423;29;20048;-65
2022/06/07 08:03:34;;;;;;;20.27;5.40;;;;;;;;;;4869134;29;20042;-65
2022/06/07 08:06:00;;;;;;;18.58;5.13;;;;;;;;;;4867217;29;20719;-63
2022/06/07 08:08:25;;;;;;;24.48;5.57;;;;;;;;;;4864691;29;20039;-66
2022/06/07 08:10:50;;;;;;;27.52;6.13;;;;;;;;;;4867628;29;20916;-67
2022/06/07 08:13:17;;;;;;;25.60;5.85;;;;;;;;;;4867532;29;20087;-65
2022/06/07 08:15:43;;;;;;;14.98;5.45;;;;;;;;;;4846946;29;20056;-64
2022/06/07 08:18:09;;;;;;;17.73;5.13;;;;;;;;;;4848607;29;22265;-65
2022/06/07 08:20:38;;;;;;;24.02;5.38;;;;;;;;;;4863341;29;20043;-65
2022/06/07 08:23:04;;;;;;;16.35;5.28;;;;;;;;;;4865363;29;20453;-65
2022/06/07 08:25:30;;;;;;;19.42;5.88;;;;;;;;;;4864647;29;22889;-65
2022/06/07 08:27:57;;;;;;;18.60;5.80;;;;;;;;;;4865364;29;20072;-66
2022/06/07 08:30:23;;;;;;;20.55;5.07;;;;;;;;;;4864148;29;20469;-64
2022/06/07 08:32:48;;;;;;;17.35;5.30;;;;;;;;;;4864692;29;20667;-65
2022/06/07 08:37:59;;;;;;;17.58;5.82;;;;;;;;;;4864354;29;20584;-66
2022/06/07 08:40:29;;;;;;;16.10;5.30;;;;;;;;;;4843305;29;20071;-63
2022/06/07 08:42:58;;;;;;;19.25;5.35;;;;;;;;;;4862732;29;20381;-65
2022/06/07 08:45:26;;;;;;;16.63;4.85;;;;;;;;;;4861890;29;20051;-65
2022/06/07 08:47:59;;;;;;;18.98;4.65;;;;;;;;;;4864761;29;20047;-65
2022/06/07 08:50:29;;;;;;;18.42;5.00;;;;;;;;;;4843819;29;21015;-65
2022/06/07 08:53:00;;;;;;;23.58;4.88;;;;;;;;;;4845550;29;20147;-66
2022/06/07 08:55:30;;;;;;;18.02;4.80;;;;;;;;;;4865236;29;20043;-65
2022/06/07 08:57:59;;;;;;;14.57;4.03;;;;;;;;;;4867390;29;20569;-66
2022/06/07 09:00:27;;;;;;;14.88;3.78;;;;;;;;;;4865216;29;20047;-67
2022/06/07 09:03:02;;;;;;;18.15;4.15;;;;;;;;;;4867669;29;20035;-65
2022/06/07 09:05:27;;;;;;;15.70;4.13;;;;;;;;;;4863159;29;20037;-65
2022/06/07 09:07:53;;;;;;;18.95;4.80;;;;;;;;;;4868258;29;20032;-65
2022/06/07 09:13:05;;;;;;;19.35;5.00;;;;;;;;;;4864633;29;20044;-66
2022/06/07 09:15:32;;;;;;;18.75;4.50;;;;;;;;;;4862616;29;20041;-64
2022/06/07 09:17:58;;;;;;;16.00;4.40;;;;;;;;;;4867651;29;20043;-66
2022/06/07 09:20:25;;;;;;;17.83;4.15;;;;;;;;;;4864265;29;20138;-64
2022/06/07 09:23:03;;;;;;;19.70;4.50;;;;;;;;;;4869179;29;21445;-66
2022/06/07 09:25:35;;;;;;;16.33;4.05;;;;;;;;;;4867928;29;20070;-64
2022/06/07 09:28:05;;;;;;;17.00;4.95;;;;;;;;;;4867832;29;20036;-65
2022/06/07 09:30:35;;;;;;;17.80;5.05;;;;;;;;;;4865806;29;20104;-66
2022/06/07 09:33:19;;;;;;;18.48;5.10;;;;;;;;;;4866752;29;20055;-64
2022/06/07 09:35:45;;;;;;;24.10;5.10;;;;;;;;;;4866052;29;20147;-66
2022/06/07 09:38:12;;;;;;;21.05;5.57;;;;;;;;;;4864769;29;20024;-65
2022/06/07 09:40:54;;;;;;;17.70;4.90;;;;;;;;;;4862923;29;20055;-64
2022/06/07 09:43:24;;;;;;;17.35;4.80;;;;;;;;;;4862323;29;20591;-63
2022/06/07 09:45:55;;;;;;;14.88;4.90;;;;;;;;;;4846347;29;20041;-64
2022/06/07 09:48:29;;;;;;;14.45;4.32;;;;;;;;;;4842699;29;20547;-64
2022/06/07 09:51:00;;;;;;;20.08;5.07;;;;;;;;;;4861253;29;22346;-65
2022/06/07 09:53:32;;;;;;;16.08;5.25;;;;;;;;;;4867589;29;20616;-64
2022/06/07 09:56:24;;;;;;;16.88;5.10;;;;;;;;;;4847308;29;20152;-65
2022/06/07 09:58:55;;;;;;;18.05;5.53;;;;;;;;;;4862220;29;20054;-64
2022/06/07 10:01:26;;;;;;;20.00;5.13;;;;;;;;;;4864955;29;20036;-66
2022/06/07 10:03:55;;;;;;;21.92;5.50;;;;;;;;;;4866608;29;20825;-64
2022/06/07 10:06:27;;;;;;;15.15;5.65;;;;;;;;;;4865869;29;20046;-63
2022/06/07 10:08:55;;;;;;;23.13;5.40;;;;;;;;;;4861643;29;20146;-63
2022/06/07 10:11:24;;;;;;;17.95;5.32;;;;;;;;;;4862775;29;20150;-63
2022/06/07 10:14:02;;;;;;;20.25;5.15;;;;;;;;;;4836228;29;20036;-65
2022/06/07 10:16:38;;;;;;;18.60;5.50;;;;;;;;;;4863041;29;20036;-65
2022/06/07 10:19:19;;;;;;;15.82;5.20;;;;;;;;;;4865506;29;20156;-64
2022/06/07 10:21:59;;;;;;;17.30;5.78;;;;;;;;;;4865570;29;20036;-65
2022/06/07 10:24:31;;;;;;;19.40;6.50;;;;;;;;;;4851667;29;20126;-66
2022/06/07 10:27:22;;;;;;;19.45;6.60;;;;;;;;;;4864714;29;20040;-65
2022/06/07 10:29:48;;;;;;;;;;;;;;;;;;4858707;29;20037;-65
2022/06/07 10:32:16;;;;;;;16.63;7.20;;;;;;;;;;4867628;29;19974;-66
2022/06/07 10:34:46;;;;;;;14.50;7.40;;;;;;;;;;4869703;29;20036;-65
2022/06/07 10:37:14;;;;;;;18.75;7.75;;;;;;;;;;4869669;29;20138;-66
2022/06/07 10:39:51;;;;;;;15.50;7.13;;;;;;;;;;4868973;29;20917;-66
2022/06/07 10:42:17;;;;;;;17.85;7.85;;;;;;;;;;4870011;29;20079;-65
2022/06/07 10:44:56;;;;;;;16.20;7.55;;;;;;;;;;4868871;29;20895;-66
2022/06/07 10:47:35;;;;;;;15.57;7.32;;;;;;;;;;4868017;29;20043;-66
2022/06/07 10:50:07;;;;;;;18.17;7.10;;;;;;;;;;4864702;29;20385;-64
2022/06/07 10:52:41;;;;;;;19.45;7.07;;;;;;;;;;4846295;29;20176;-65
2022/06/07 10:55:14;;;;;;;20.77;7.35;;;;;;;;;;4867442;29;20771;-65
2022/06/07 10:57:58;;;;;;;19.23;7.20;;;;;;;;;;4865892;29;20551;-66
2022/06/07 11:00:29;;;;;;;16.48;7.10;;;;;;;;;;4866928;29;20123;-65
2022/06/07 11:03:00;;;;;;;21.42;7.43;;;;;;;;;;4851458;29;20219;-64
2022/06/07 11:10:57;;;;;;;14.57;6.13;;;;;;;;;;4864792;29;20548;-65
2022/06/07 11:13:33;;;;;;;12.95;6.10;;;;;;;;;;4850341;29;20166;-66
2022/06/07 11:16:17;;;;;;;18.77;6.57;;;;;;;;;;4867474;29;20501;-66
2022/06/07 11:18:42;;;;;;;14.35;6.22;;;;;;;;;;4843369;29;20033;-66
2022/06/07 11:21:10;;;;;;;13.40;6.57;;;;;;;;;;4868288;29;20057;-64
2022/06/07 11:23:43;;;;;;;15.15;6.45;;;;;;;;;;4867578;29;20773;-68
2022/06/07 11:26:18;;;;;;;17.23;6.50;;;;;;;;;;4834652;29;20043;-67
2022/06/07 11:28:44;;;;;;;13.57;5.88;;;;;;;;;;4868422;29;20032;-68
2022/06/07 11:31:29;;;;;;;14.18;5.30;;;;;;;;;;4870618;29;20051;-68
2022/06/07 11:34:12;;;;;;;15.90;5.70;;;;;;;;;;4869536;29;20044;-67
2022/06/07 11:36:42;;;;;;;11.88;5.53;;;;;;;;;;4868922;29;20036;-73
2022/06/07 11:39:27;;;;;;;15.48;5.97;;;;;;;;;;4858479;29;20711;-68
2022/06/07 11:42:00;;;;;;;13.27;5.30;;;;;;;;;;4874128;29;20049;-67
2022/06/07 11:44:28;;;;;;;13.25;5.30;;;;;;;;;;4892689;29;20040;-68
2022/06/07 11:46:57;;;;;;;12.52;5.25;;;;;;;;;;4873307;29;20075;-69
2022/06/07 11:49:23;;;;;;;14.70;5.72;;;;;;;;;;4873348;29;20047;-69
2022/06/07 11:51:55;;;;;;;17.02;5.90;;;;;;;;;;4867816;29;20881;-68
2022/06/07 11:54:25;;;;;;;14.52;5.15;;;;;;;;;;4884787;29;20040;-71
2022/06/07 11:56:52;;;;;;;12.88;5.82;;;;;;;;;;4870630;29;20544;-67
2022/06/07 11:59:20;;;;;;;14.65;6.28;;;;;;;;;;4866745;29;20037;-67
2022/06/07 12:01:47;;;;;;;17.00;6.30;;;;;;;;;;4893805;29;20036;-73
2022/06/07 12:04:34;;;;;;;12.63;5.35;;;;;;;;;;4894520;29;20552;-72
2022/06/07 12:07:19;;;;;;;13.35;5.90;;;;;;;;;;4888979;29;20051;-72
2022/06/07 12:09:55;;;;;;;17.90;5.75;;;;;;;;;;4887656;29;20041;-70
2022/06/07 12:12:20;;;;;;;16.63;6.10;;;;;;;;;;4879324;29;20049;-73
2022/06/07 12:14:49;;;;;;;14.77;6.28;;;;;;;;;;4879856;29;20086;-72
2022/06/07 12:17:29;;;;;;;15.48;6.50;;;;;;;;;;4878765;29;20036;-73
2022/06/07 12:19:55;;;;;;;14.20;6.60;;;;;;;;;;4879947;29;20140;-72
2022/06/07 12:22:23;;;;;;;15.30;6.22;;;;;;;;;;4874699;29;20032;-73
2022/06/07 12:24:59;;;;;;;17.83;6.93;;;;;;;;;;4873787;29;20040;-73
2022/06/07 12:27:24;;;;;;;15.23;7.13;;;;;;;;;;4872835;29;20103;-73
2022/06/07 12:29:54;;;;;;;14.32;8.00;;;;;;;;;;4853646;29;20036;-73
2022/06/07 12:32:22;;;;;;;14.02;7.10;;;;;;;;;;4854222;29;20048;-71
2022/06/07 12:35:02;;;;;;;13.35;7.63;;;;;;;;;;4871413;29;20440;-72
2022/06/07 12:37:28;;;;;;;17.02;7.45;;;;;;;;;;4871609;29;20032;-76
2022/06/07 12:39:57;;;;;;;19.50;7.38;;;;;;;;;;4852602;29;20139;-73
2022/06/07 12:42:27;;;;;;;16.33;7.65;;;;;;;;;;4873335;29;20932;-75
2022/06/07 12:44:53;;;;;;;14.63;6.13;;;;;;;;;;4860276;29;20781;-74
2022/06/07 12:47:26;;;;;;;14.30;6.13;;;;;;;;;;4868648;29;20036;-74
2022/06/07 12:49:52;;;;;;;16.02;6.60;;;;;;;;;;4869906;29;20036;-72
2022/06/07 12:52:38;;;;;;;14.73;6.72;;;;;;;;;;4850535;29;20064;-72
2022/06/07 12:55:12;;;;;;;15.32;7.00;;;;;;;;;;4863826;29;20044;-75
2022/06/07 12:57:49;;;;;;;13.60;6.15;;;;;;;;;;4871107;29;20071;-75
2022/06/07 13:00:20;;;;;;;15.82;6.68;;;;;;;;;;4867781;29;20046;-73
2022/06/07 13:02:50;;;;;;;17.15;7.10;;;;;;;;;;4854908;29;20040;-73
2022/06/07 13:05:23;;;;;;;14.82;6.70;;;;;;;;;;4866498;29;20086;-74
2022/06/07 13:07:51;;;;;;;13.05;7.35;;;;;;;;;;4866615;29;21131;-73
2022/06/07 13:10:36;;;;;;;13.85;6.57;;;;;;;;;;4865707;29;20043;-73
2022/06/07 13:13:05;;;;;;;15.35;7.00;;;;;;;;;;4870225;29;20040;-71
2022/06/07 13:15:35;;;;;;;19.75;7.15;;;;;;;;;;4862158;29;20806;-73
2022/06/07 13:18:20;;;;;;;15.43;7.20;;;;;;;;;;4857263;29;20032;-72
2022/06/07 13:20:46;;;;;;;21.25;7.22;;;;;;;;;;4841097;29;20184;-69
2022/06/07 13:23:18;;;;;;;11.70;6.60;;;;;;;;;;4862657;29;20468;-70
2022/06/07 13:25:43;;;;;;;15.23;6.93;;;;;;;;;;4864344;29;20772;-74
2022/06/07 13:28:19;;;;;;;15.07;7.78;;;;;;;;;;4865776;29;20036;-72
2022/06/07 13:30:46;;;;;;;17.80;7.50;;;;;;;;;;4864781;29;20071;-71
2022/06/07 13:33:14;;;;;;;13.23;7.65;;;;;;;;;;4864649;29;20541;-73
2022/06/07 13:35:43;;;;;;;17.48;7.70;;;;;;;;;;4867161;29;20032;-71
2022/06/07 13:38:21;;;;;;;12.38;6.60;;;;;;;;;;4856561;29;20211;-70
2022/06/07 13:40:59;;;;;;;14.63;6.90;;;;;;;;;;4858630;29;20145;-73
2022/06/07 13:43:24;;;;;;;13.20;6.78;;;;;;;;;;4868173;29;20383;-73
2022/06/07 13:45:53;;;;;;;12.35;6.70;;;;;;;;;;4867507;29;20164;-73
2022/06/07 13:53:21;;;;;;;15.68;7.13;;;;;;;;;;4864983;29;20734;-73
2022/06/07 13:54:21;;;;;;;13.38;6.53;;;;;;;;;;4866044;29;20163;-73
2022/06/07 13:56:47;;;;;;;15.15;6.50;;;;;;;;;;4861836;29;20346;-73
2022/06/07 13:59:13;;;;;;;13.38;6.90;;;;;;;;;;4872186;29;20115;-72
2022/06/07 14:01:44;;;;;;;15.35;5.88;;;;;;;;;;4859790;29;20091;-70
2022/06/07 14:04:31;;;;;;;12.73;5.82;;;;;;;;;;4854746;29;20358;-73
2022/06/07 14:06:57;;;;;;;15.77;5.60;;;;;;;;;;4854810;29;20048;-73
2022/06/07 14:09:26;;;;;;;12.90;5.93;;;;;;;;;;4875755;29;20087;-73
2022/06/07 14:11:55;;;;;;;12.65;5.60;;;;;;;;;;4879399;29;20047;-72
2022/06/07 14:14:20;;;;;;;12.40;5.55;;;;;;;;;;4878741;29;20619;-73
2022/06/07 14:16:51;;;;;;;12.65;5.32;;;;;;;;;;4875160;29;20032;-71
2022/06/07 14:19:37;;;;;;;13.23;5.72;;;;;;;;;;4850739;29;22594;-71
2022/06/07 14:22:15;;;;;;;11.57;5.55;;;;;;;;;;4854266;29;20048;-72
2022/06/07 14:24:43;;;;;;;10.65;5.10;;;;;;;;;;4850117;29;20754;-72
2022/06/07 14:27:11;;;;;;;11.93;4.75;;;;;;;;;;4860477;29;20040;-76
2022/06/07 14:29:37;;;;;;;13.10;4.90;;;;;;;;;;4874804;29;20051;-74
2022/06/07 14:32:02;;;;;;;15.73;4.93;;;;;;;;;;4872290;29;20135;-73
2022/06/07 14:34:28;;;;;;;7.95;4.45;;;;;;;;;;4876990;29;20040;-72
2022/06/07 14:36:55;;;;;;;13.27;4.65;;;;;;;;;;4886823;29;20036;-73
2022/06/07 14:39:21;;;;;;;11.75;4.82;;;;;;;;;;4875516;29;20302;-74
2022/06/07 14:41:47;;;;;;;13.23;4.97;;;;;;;;;;4872772;29;20662;-70
2022/06/07 14:44:13;;;;;;;13.88;5.00;;;;;;;;;;4871660;29;20132;-73
2022/06/07 14:46:39;;;;;;;11.65;4.93;;;;;;;;;;4855400;29;21012;-73
2022/06/07 14:49:15;;;;;;;10.45;4.57;;;;;;;;;;4872138;29;20083;-73
2022/06/07 14:51:41;;;;;;;12.20;4.75;;;;;;;;;;4872649;29;20052;-72
2022/06/07 14:54:26;;;;;;;11.13;4.78;;;;;;;;;;4865022;29;20036;-75
2022/06/07 14:56:56;;;;;;;10.32;4.80;;;;;;;;;;4864009;29;20039;-75